Aragon, New Mexico
Current Conditions -  °F | °C
As of 9:15 AM on Wednesday 26 Nov 2014 (Local Time) from KJTC Reporting Station
Clear Clear  
Wind Chill: 45°   Ceiling: Unl
Heat Index: 48°   Visibility: 10mi
Dew Point: 19°   Wind: 8mph
Humidity: 32%   Direction: 310°NW
Pressure: 30.49"   Gusts: NA
Location:  33.88°N, 108.54°W
Report Text: KJTC 261615Z AUTO 31007KT 10SM CLR 09/M07 A3049 RMK AO2
Loading
Personal Weather Stations






























Interactive Weather Map New forecast layout! Learn more

10-Day Weather Forecast

Advertisements
Track Severe Weather on mobile